Accueil
METAR-TAF:

METAR-TAF

Aéroports :

Diyarbakır, Turquie

latitude: 37-53N, longitude: 040-11E, altitude: 686 m

Observation

Le bulletin a été fait il y a 47 minutes, à 10:20 UTC
Vent 5 kt de nord-est, variant entre nord et est/sud-est
Température 5°C
Humidité 48%
Pression 1025 hPa
Visibilité 10 km ou plus
pas de nuages en-dessous de 1500 mètres et pas de cumulonimbus.

METAR: LTCC 201020Z 05005KT 010V110 CAVOK 05/M05 Q1025 NOSIG RMK RWY16 VRB02KT

Heure: 14:07 (11:07 UTC)

Prévision

Le bulletin a été fait il y a 6 heures et 27 minutes, à 04:40 UTC
Prévision valable du 20 à 06 UTC au 21 à 06 UTC
Vent 2 kt de direction variable
Visibilité 10 km ou plus
pas de nuages en-dessous de 1500 mètres et pas de cumulonimbus.

TAF: LTCC 200440Z 2006/2106 VRB02KT CAVOK

Observations et prévisions météorologiques de plus de 4000 aéroports (messages METAR et TAF).

Les stations disponibles sont représentées par des disques jaunes et rouges sur la carte.

Passer la souris dessus pour voir le nom de la station.

Cliquer dessus pour voir les observations et prévisions météorologiques.

Pour changer de carte: cliquez sur les boutons verts avec une croix noire pour zoomer, sur le bouton vert avec un tiret pour effectuer un zoom arrière, ou sur les flèches vertes pour les cartes adjacentes.


METAR-TAF: